createdAt,value
2018-06-29T00:00:47.423Z,0
2018-06-29T00:01:55.517Z,0
2018-06-29T00:03:03.570Z,0
2018-06-29T00:04:11.650Z,0
2018-06-29T00:05:19.719Z,0
2018-06-29T00:06:27.770Z,0
2018-06-29T00:07:35.845Z,0
2018-06-29T00:08:43.916Z,0
2018-06-29T00:09:51.972Z,0
2018-06-29T00:11:00.036Z,0
2018-06-29T00:12:08.092Z,0
2018-06-29T00:13:16.156Z,0
2018-06-29T00:14:24.235Z,0
2018-06-29T00:15:32.309Z,0
2018-06-29T00:16:40.370Z,0
2018-06-29T00:17:48.447Z,0
2018-06-29T00:18:56.523Z,0
2018-06-29T00:20:04.632Z,0
2018-06-29T00:21:12.634Z,0
2018-06-29T00:22:20.719Z,0
2018-06-29T00:23:28.777Z,0
2018-06-29T00:24:36.813Z,0
2018-06-29T00:25:44.894Z,0
2018-06-29T00:26:52.954Z,0
2018-06-29T00:28:01.023Z,0
2018-06-29T00:29:09.093Z,0
2018-06-29T00:30:17.130Z,0
2018-06-29T00:31:25.232Z,0
2018-06-29T00:32:33.406Z,0
2018-06-29T00:33:41.392Z,0
2018-06-29T00:34:49.415Z,0
2018-06-29T00:35:57.453Z,0
2018-06-29T00:37:05.552Z,0
2018-06-29T00:38:13.612Z,0
2018-06-29T00:39:21.675Z,0
2018-06-29T00:40:29.742Z,0
2018-06-29T00:41:37.799Z,0
2018-06-29T00:42:45.879Z,0
2018-06-29T00:43:53.962Z,0
2018-06-29T00:45:02.001Z,0
2018-06-29T00:46:10.084Z,0
2018-06-29T00:47:18.157Z,0
2018-06-29T00:48:26.215Z,0
2018-06-29T00:49:34.271Z,0
2018-06-29T00:50:42.319Z,0
2018-06-29T00:51:50.574Z,0
2018-06-29T00:52:58.466Z,0
2018-06-29T00:54:06.543Z,0
2018-06-29T00:55:14.663Z,0
2018-06-29T00:56:22.670Z,0
2018-06-29T00:57:30.728Z,0
2018-06-29T00:58:38.804Z,0
2018-06-29T00:59:46.844Z,0
2018-06-29T01:00:54.931Z,0
2018-06-29T01:02:03.011Z,0
2018-06-29T01:03:11.060Z,0
2018-06-29T01:04:19.123Z,0
2018-06-29T01:05:27.162Z,0
2018-06-29T01:06:35.242Z,0
2018-06-29T01:07:43.324Z,0
2018-06-29T01:08:51.391Z,0
2018-06-29T01:09:59.464Z,0
2018-06-29T01:11:07.497Z,0
2018-06-29T01:12:15.593Z,0
2018-06-29T01:13:23.660Z,0
2018-06-29T01:14:31.726Z,0
2018-06-29T01:15:39.785Z,0
2018-06-29T01:16:47.849Z,0
2018-06-29T01:17:55.913Z,0
2018-06-29T01:19:03.979Z,0
2018-06-29T01:20:12.047Z,0
2018-06-29T01:21:20.124Z,0
2018-06-29T01:22:28.226Z,0
2018-06-29T01:23:36.253Z,0
2018-06-29T01:24:44.323Z,0
2018-06-29T01:25:52.380Z,0
2018-06-29T01:27:00.443Z,0
2018-06-29T01:28:08.507Z,0
2018-06-29T01:29:16.584Z,0
2018-06-29T01:30:24.651Z,0
2018-06-29T01:31:32.730Z,0
2018-06-29T01:32:40.782Z,0
2018-06-29T01:33:48.846Z,0
2018-06-29T01:34:56.897Z,0
2018-06-29T01:36:04.976Z,0
2018-06-29T01:37:13.039Z,0
2018-06-29T01:38:21.109Z,0
2018-06-29T01:39:29.187Z,0
2018-06-29T01:40:37.205Z,0
2018-06-29T01:41:45.313Z,0
2018-06-29T01:42:53.369Z,0
2018-06-29T01:44:01.437Z,0
2018-06-29T01:45:09.500Z,0
2018-06-29T01:46:17.533Z,0
2018-06-29T01:47:25.633Z,0
2018-06-29T01:48:33.694Z,0
2018-06-29T01:49:41.769Z,0
2018-06-29T01:50:49.849Z,0
2018-06-29T01:51:57.890Z,0
2018-06-29T01:53:05.958Z,0
2018-06-29T01:54:14.042Z,0
2018-06-29T01:55:22.102Z,0
2018-06-29T01:56:30.165Z,0
2018-06-29T01:57:38.223Z,0
2018-06-29T01:58:46.300Z,0
2018-06-29T01:59:54.350Z,0
2018-06-29T02:01:02.426Z,0
2018-06-29T02:02:10.490Z,0
2018-06-29T02:03:18.552Z,0
2018-06-29T02:04:26.632Z,0
2018-06-29T02:05:34.682Z,0
2018-06-29T02:06:42.768Z,0
2018-06-29T02:07:50.808Z,0
2018-06-29T02:08:58.870Z,0
2018-06-29T02:10:06.920Z,0
2018-06-29T02:11:15.013Z,0
2018-06-29T02:12:23.079Z,0
2018-06-29T02:13:31.141Z,0
2018-06-29T02:14:39.199Z,0
2018-06-29T02:15:47.248Z,0
2018-06-29T02:16:55.328Z,0
2018-06-29T02:18:03.396Z,0
2018-06-29T02:19:11.457Z,0
2018-06-29T02:20:19.536Z,0
2018-06-29T02:21:27.572Z,0
2018-06-29T02:22:35.666Z,0
2018-06-29T02:23:43.725Z,0
2018-06-29T02:24:51.788Z,0
2018-06-29T02:25:59.864Z,0
2018-06-29T02:27:07.929Z,0
2018-06-29T02:28:16.034Z,0
2018-06-29T02:29:24.054Z,0
2018-06-29T02:30:32.203Z,0
2018-06-29T02:31:40.194Z,0
2018-06-29T02:32:48.256Z,0
2018-06-29T02:33:56.324Z,0
2018-06-29T02:35:04.399Z,0
2018-06-29T02:36:12.510Z,0
2018-06-29T02:37:20.515Z,0
2018-06-29T02:38:28.582Z,0
2018-06-29T02:39:36.648Z,0
2018-06-29T02:40:44.742Z,0
2018-06-29T02:41:52.779Z,0
2018-06-29T02:43:00.851Z,0
2018-06-29T02:44:08.912Z,0
2018-06-29T02:45:16.952Z,0
2018-06-29T02:46:25.040Z,0
2018-06-29T02:47:33.100Z,0
2018-06-29T02:48:41.177Z,0
2018-06-29T02:49:49.240Z,0
2018-06-29T02:50:57.274Z,0
2018-06-29T02:52:05.365Z,0
2018-06-29T02:53:13.438Z,0
2018-06-29T02:54:21.497Z,0
2018-06-29T02:55:29.579Z,0
2018-06-29T02:56:37.611Z,0
2018-06-29T02:57:45.702Z,0
2018-06-29T02:58:53.792Z,0
2018-06-29T03:00:01.856Z,0
2018-06-29T03:01:09.920Z,0
2018-06-29T03:02:17.985Z,0
2018-06-29T03:03:26.059Z,4
2018-06-29T03:04:34.120Z,0
2018-06-29T03:05:42.185Z,4
2018-06-29T03:06:50.246Z,4
2018-06-29T03:07:58.319Z,8
2018-06-29T03:09:06.390Z,4
2018-06-29T03:10:14.457Z,4
2018-06-29T03:11:22.521Z,8
2018-06-29T03:12:30.602Z,8
2018-06-29T03:13:38.641Z,8
2018-06-29T03:14:46.704Z,8
2018-06-29T03:15:54.781Z,12
2018-06-29T03:17:02.854Z,12
2018-06-29T03:18:10.926Z,16
2018-06-29T03:19:18.988Z,20
2018-06-29T03:20:27.053Z,20
2018-06-29T03:21:35.126Z,24
2018-06-29T03:22:43.192Z,24
2018-06-29T03:23:51.256Z,36
2018-06-29T03:24:59.323Z,36
2018-06-29T03:26:07.370Z,40
2018-06-29T03:27:15.459Z,36
2018-06-29T03:28:23.533Z,48
2018-06-29T03:29:31.599Z,48
2018-06-29T03:30:39.660Z,56
2018-06-29T03:31:48.834Z,68
2018-06-29T03:32:55.848Z,72
2018-06-29T03:34:03.850Z,80
2018-06-29T03:35:11.911Z,72
2018-06-29T03:36:19.994Z,80
2018-06-29T03:37:28.045Z,96
2018-06-29T03:38:36.125Z,100
2018-06-29T03:39:44.198Z,88
2018-06-29T03:40:52.247Z,80
2018-06-29T03:42:00.316Z,116
2018-06-29T03:43:08.400Z,116
2018-06-29T03:44:16.460Z,120
2018-06-29T03:45:24.504Z,100
2018-06-29T03:46:32.577Z,112
2018-06-29T03:47:40.650Z,152
2018-06-29T03:48:48.717Z,208
2018-06-29T03:49:56.764Z,200
2018-06-29T03:51:04.858Z,212
2018-06-29T03:52:12.915Z,224
2018-06-29T03:53:20.977Z,236
2018-06-29T03:54:29.091Z,312
2018-06-29T03:55:37.083Z,320
2018-06-29T03:56:46.376Z,368
2018-06-29T03:57:53.251Z,380
2018-06-29T03:59:01.300Z,400
2018-06-29T04:00:09.381Z,408
2018-06-29T04:01:17.940Z,408
2018-06-29T04:02:25.876Z,380
2018-06-29T04:03:33.573Z,372
2018-06-29T04:04:41.644Z,416
2018-06-29T04:05:49.712Z,468
2018-06-29T04:06:57.759Z,436
2018-06-29T04:08:07.585Z,504
2018-06-29T04:09:13.916Z,532
2018-06-29T04:10:23.576Z,504
2018-06-29T04:11:31.645Z,580
2018-06-29T04:12:39.724Z,636
2018-06-29T04:13:47.777Z,660
2018-06-29T04:14:55.845Z,684
2018-06-29T04:16:03.901Z,640
2018-06-29T04:17:11.977Z,668
2018-06-29T04:18:20.037Z,712
2018-06-29T04:19:28.116Z,776
2018-06-29T04:20:36.172Z,664
2018-06-29T04:21:46.453Z,648
2018-06-29T04:22:54.521Z,544
2018-06-29T04:24:02.575Z,504
2018-06-29T04:25:12.066Z,524
2018-06-29T04:26:18.721Z,568
2018-06-29T04:27:26.844Z,524
2018-06-29T04:28:34.842Z,552
2018-06-29T04:29:42.909Z,544
2018-06-29T04:30:57.244Z,556
2018-06-29T04:31:59.060Z,596
2018-06-29T04:33:07.087Z,640
2018-06-29T04:34:15.184Z,672
2018-06-29T04:35:23.242Z,800
2018-06-29T04:36:34.368Z,1308
2018-06-29T04:37:40.373Z,1312
2018-06-29T04:38:49.858Z,1432
2018-06-29T04:39:56.512Z,1644
2018-06-29T04:41:04.579Z,1500
2018-06-29T04:42:12.644Z,1504
2018-06-29T04:43:20.709Z,1692
2018-06-29T04:44:28.778Z,1700
2018-06-29T04:45:36.824Z,1328
2018-06-29T04:46:44.919Z,1428
2018-06-29T04:47:52.975Z,1912
2018-06-29T04:49:01.036Z,2240
2018-06-29T04:50:09.104Z,2140
2018-06-29T04:51:17.150Z,1876
2018-06-29T04:52:25.241Z,2244
2018-06-29T04:53:33.313Z,2208
2018-06-29T04:54:41.380Z,2692
2018-06-29T04:55:50.076Z,2800
2018-06-29T04:56:57.488Z,2492
2018-06-29T04:58:05.580Z,2648
2018-06-29T04:59:13.680Z,3348
2018-06-29T05:00:21.694Z,3224
2018-06-29T05:01:29.770Z,3452
2018-06-29T05:02:37.825Z,3500
2018-06-29T05:03:45.902Z,3556
2018-06-29T05:04:53.966Z,3920
2018-06-29T05:06:02.044Z,3456
2018-06-29T05:07:10.105Z,3520
2018-06-29T05:08:18.174Z,3860
2018-06-29T05:09:26.266Z,3600
2018-06-29T05:10:34.307Z,3308
2018-06-29T05:11:42.385Z,3384
2018-06-29T05:12:50.460Z,3464
2018-06-29T05:13:58.522Z,3064
2018-06-29T05:15:06.580Z,3064
2018-06-29T05:16:14.659Z,3068
2018-06-29T05:17:22.726Z,2912
2018-06-29T05:18:30.780Z,3572
2018-06-29T05:19:38.872Z,2896
2018-06-29T05:20:46.913Z,2600
2018-06-29T05:21:54.984Z,3028
2018-06-29T05:23:03.083Z,3644
2018-06-29T05:24:11.155Z,3220
2018-06-29T05:25:19.191Z,3396
2018-06-29T05:26:27.231Z,2976
2018-06-29T05:27:35.334Z,3212
2018-06-29T05:28:43.421Z,3428
2018-06-29T05:29:51.437Z,3448
2018-06-29T05:30:59.498Z,3216
2018-06-29T05:32:07.553Z,2484
2018-06-29T05:33:15.643Z,1964
2018-06-29T05:34:23.706Z,2228
2018-06-29T05:35:31.773Z,2840
2018-06-29T05:36:39.840Z,3952
2018-06-29T05:37:47.901Z,4524
2018-06-29T05:38:55.965Z,4016
2018-06-29T05:40:04.055Z,3340
2018-06-29T05:41:12.100Z,3356
2018-06-29T05:42:20.175Z,4796
2018-06-29T05:43:28.232Z,4248
2018-06-29T05:44:37.697Z,3548
2018-06-29T05:45:45.779Z,4224
2018-06-29T05:46:53.862Z,4052
2018-06-29T05:48:01.910Z,3604
2018-06-29T05:49:09.999Z,4096
2018-06-29T05:50:18.042Z,3700
2018-06-29T05:51:26.106Z,3600
2018-06-29T05:52:34.178Z,3956
2018-06-29T05:53:42.249Z,4056
2018-06-29T05:54:50.306Z,4340
2018-06-29T05:55:58.394Z,4000
2018-06-29T05:57:06.437Z,4088
2018-06-29T05:58:14.516Z,4292
2018-06-29T05:59:22.586Z,5440
2018-06-29T06:00:30.654Z,5612
2018-06-29T06:01:38.723Z,4140
2018-06-29T06:02:46.781Z,4840
2018-06-29T06:03:54.848Z,5612
2018-06-29T06:05:02.923Z,5996
2018-06-29T06:06:10.979Z,6260
2018-06-29T06:07:19.053Z,5556
2018-06-29T06:08:27.093Z,5140
2018-06-29T06:09:35.175Z,4444
2018-06-29T06:10:43.263Z,4476
2018-06-29T06:11:51.323Z,5376
2018-06-29T06:12:59.385Z,6376
2018-06-29T06:14:07.436Z,8472
2018-06-29T06:15:15.513Z,7348
2018-06-29T06:16:23.599Z,5852
2018-06-29T06:17:31.677Z,5960
2018-06-29T06:18:39.737Z,5228
2018-06-29T06:19:47.807Z,4840
2018-06-29T06:20:55.866Z,5072
2018-06-29T06:22:03.969Z,6128
2018-06-29T06:23:12.009Z,5784
2018-06-29T06:24:20.070Z,6400
2018-06-29T06:25:28.144Z,6728
2018-06-29T06:26:36.208Z,7548
2018-06-29T06:27:44.280Z,8024
2018-06-29T06:28:52.322Z,8088
2018-06-29T06:30:00.391Z,9308
2018-06-29T06:31:08.479Z,7892
2018-06-29T06:32:16.542Z,6292
2018-06-29T06:33:24.616Z,8548
2018-06-29T06:34:32.673Z,9848
2018-06-29T06:35:40.742Z,10876
2018-06-29T06:36:48.812Z,11084
2018-06-29T06:37:56.870Z,10892
2018-06-29T06:39:04.952Z,10400
2018-06-29T06:40:13.032Z,9840
2018-06-29T06:41:21.093Z,10008
2018-06-29T06:42:29.277Z,11024
2018-06-29T06:43:37.201Z,12348
2018-06-29T06:44:45.309Z,15728
2018-06-29T06:45:53.352Z,17176
2018-06-29T06:47:01.450Z,19072
2018-06-29T06:48:09.506Z,19776
2018-06-29T06:49:17.538Z,19072
2018-06-29T06:50:25.644Z,17632
2018-06-29T06:51:33.711Z,18016
2018-06-29T06:52:41.771Z,18720
2018-06-29T06:53:49.855Z,17244
2018-06-29T06:54:57.898Z,15212
2018-06-29T06:56:05.977Z,17004
2018-06-29T06:57:14.071Z,18912
2018-06-29T06:58:22.127Z,19232
2018-06-29T06:59:30.243Z,16336
2018-06-29T07:00:38.268Z,14152
2018-06-29T07:01:46.341Z,13508
2018-06-29T07:02:54.402Z,12952
2018-06-29T07:04:02.472Z,12784
2018-06-29T07:05:10.553Z,12276
2018-06-29T07:06:18.605Z,11928
2018-06-29T07:07:26.670Z,11568
2018-06-29T07:08:34.757Z,12792
2018-06-29T07:09:42.813Z,14460
2018-06-29T07:10:50.895Z,16480
2018-06-29T07:11:58.964Z,19872
2018-06-29T07:13:07.007Z,21120
2018-06-29T07:14:15.102Z,19872
2018-06-29T07:15:23.183Z,20736
2018-06-29T07:16:31.237Z,19360
2018-06-29T07:17:39.309Z,16396
2018-06-29T07:18:47.355Z,17120
2018-06-29T07:19:55.449Z,20352
2018-06-29T07:21:03.506Z,21280
2018-06-29T07:22:11.579Z,24704
2018-06-29T07:23:19.642Z,24512
2018-06-29T07:24:27.748Z,26496
2018-06-29T07:25:35.799Z,33568
2018-06-29T07:26:44.482Z,30400
2018-06-29T07:27:51.940Z,28640
2018-06-29T07:29:00.007Z,28640
2018-06-29T07:30:08.110Z,26624
2018-06-29T07:31:16.155Z,26368
2018-06-29T07:32:26.217Z,24992
2018-06-29T07:33:32.303Z,24512
2018-06-29T07:34:53.097Z,25184
2018-06-29T07:35:51.044Z,24736
2018-06-29T07:36:59.117Z,23360
2018-06-29T07:38:07.166Z,29088
2018-06-29T07:39:15.273Z,30944
2018-06-29T07:40:23.343Z,27232
2018-06-29T07:41:31.405Z,39168
2018-06-29T07:42:39.468Z,37536
2018-06-29T07:43:47.516Z,43552
2018-06-29T07:44:55.621Z,34304
2018-06-29T07:46:03.688Z,22240
2018-06-29T07:47:11.769Z,58304
2018-06-29T07:48:19.830Z,62176
2018-06-29T07:49:27.904Z,73152
2018-06-29T07:50:35.983Z,44256
2018-06-29T07:51:44.049Z,29408
2018-06-29T07:52:52.154Z,37792
2018-06-29T07:54:00.203Z,45408
2018-06-29T07:55:08.283Z,35616
2018-06-29T07:56:16.388Z,35456
2018-06-29T07:57:24.425Z,22016
2018-06-29T07:58:32.598Z,25280
2018-06-29T07:59:40.582Z,12756
2018-06-29T08:00:48.650Z,12256
2018-06-29T08:01:56.704Z,7736
2018-06-29T08:03:04.794Z,5748
2018-06-29T08:04:12.900Z,5452
2018-06-29T08:05:20.940Z,4892
2018-06-29T08:06:29.028Z,5684
2018-06-29T08:07:37.072Z,7900
2018-06-29T08:08:45.172Z,7332
2018-06-29T08:09:53.240Z,10068
2018-06-29T08:11:01.308Z,8996
2018-06-29T08:12:09.377Z,7924
2018-06-29T08:13:17.422Z,7740
2018-06-29T08:14:25.533Z,8144
2018-06-29T08:15:33.607Z,10320
2018-06-29T08:16:41.676Z,10636
2018-06-29T08:17:49.738Z,15944
2018-06-29T08:18:57.816Z,21344
2018-06-29T08:20:05.895Z,25664
2018-06-29T08:21:13.956Z,27200
2018-06-29T08:22:22.031Z,23232
2018-06-29T08:23:30.110Z,23072
2018-06-29T08:24:38.154Z,26592
2018-06-29T08:25:46.250Z,23136
2018-06-29T08:26:54.316Z,22912
2018-06-29T08:28:02.394Z,20640
2018-06-29T08:29:10.453Z,20128
2018-06-29T08:30:18.541Z,18752
2018-06-29T08:31:26.604Z,23584
2018-06-29T08:32:34.683Z,20544
2018-06-29T08:33:42.758Z,19808
2018-06-29T08:34:50.812Z,16932
2018-06-29T08:35:58.884Z,14052
2018-06-29T08:37:06.949Z,13812
2018-06-29T08:38:15.038Z,11440
2018-06-29T08:39:23.109Z,11348
2018-06-29T08:40:31.180Z,12608
2018-06-29T08:41:39.251Z,11436
2018-06-29T08:42:47.290Z,13556
2018-06-29T08:43:55.393Z,10660
2018-06-29T08:45:03.471Z,11000
2018-06-29T08:46:11.536Z,16892
2018-06-29T08:47:19.615Z,16508
2018-06-29T08:48:27.674Z,14592
2018-06-29T08:49:35.803Z,18624
2018-06-29T08:50:43.825Z,17000
2018-06-29T08:51:51.899Z,16008
2018-06-29T08:52:59.968Z,18272
2018-06-29T08:54:08.033Z,16680
2018-06-29T08:55:16.112Z,21504
2018-06-29T08:56:24.170Z,24928
2018-06-29T08:57:32.244Z,18784
2018-06-29T08:58:40.329Z,20704
2018-06-29T08:59:48.399Z,19840
2018-06-29T09:00:56.493Z,21120
2018-06-29T09:02:04.544Z,21568
2018-06-29T09:03:12.612Z,23232
2018-06-29T09:04:20.696Z,25280
2018-06-29T09:05:28.767Z,21632
2018-06-29T09:06:36.815Z,20736
2018-06-29T09:07:44.900Z,21024
2018-06-29T09:08:52.980Z,16104
2018-06-29T09:10:01.055Z,16136
2018-06-29T09:11:09.113Z,19808
2018-06-29T09:12:17.167Z,30976
2018-06-29T09:13:25.263Z,31744
2018-06-29T09:14:33.355Z,19424
2018-06-29T09:15:41.405Z,19104
2018-06-29T09:16:49.488Z,16292
2018-06-29T09:17:57.520Z,16292
2018-06-29T09:19:05.654Z,13336
2018-06-29T09:20:13.694Z,13108
2018-06-29T09:21:21.770Z,12408
2018-06-29T09:22:29.952Z,12460
2018-06-29T09:23:37.912Z,16864
2018-06-29T09:24:45.984Z,14056
2018-06-29T09:25:54.057Z,12536
2018-06-29T09:27:02.132Z,13188
2018-06-29T09:28:10.202Z,13688
2018-06-29T09:29:18.299Z,19648
2018-06-29T09:30:26.351Z,17568
2018-06-29T09:31:34.430Z,15448
2018-06-29T09:32:42.482Z,15684
2018-06-29T09:33:50.562Z,19360
2018-06-29T09:34:58.631Z,18176
2018-06-29T09:36:06.692Z,14768
2018-06-29T09:37:14.777Z,14252
2018-06-29T09:38:22.850Z,11720
2018-06-29T09:39:30.924Z,10516
2018-06-29T09:40:38.977Z,12620
2018-06-29T09:41:47.044Z,14568
2018-06-29T09:42:55.143Z,21760
2018-06-29T09:44:03.222Z,26528
2018-06-29T09:45:11.277Z,29088
2018-06-29T09:46:19.351Z,33408
2018-06-29T09:47:27.395Z,32928
2018-06-29T09:48:35.504Z,32704
2018-06-29T09:49:43.567Z,33248
2018-06-29T09:50:51.638Z,31168
2018-06-29T09:51:59.711Z,28672
2018-06-29T09:53:07.774Z,25216
2018-06-29T09:54:15.859Z,21568
2018-06-29T09:55:23.935Z,28416
2018-06-29T09:56:32.005Z,28096
2018-06-29T09:57:40.077Z,29600
2018-06-29T09:58:48.140Z,24288
2018-06-29T09:59:56.222Z,20192
2018-06-29T10:01:04.336Z,21472
2018-06-29T10:02:12.370Z,29120
2018-06-29T10:03:20.438Z,28256
2018-06-29T10:04:28.511Z,28000
2018-06-29T10:05:36.665Z,28288
2018-06-29T10:06:44.661Z,19008
2018-06-29T10:07:52.735Z,22112
2018-06-29T10:09:00.806Z,25344
2018-06-29T10:10:08.876Z,16360
2018-06-29T10:11:16.924Z,14056
2018-06-29T10:12:25.038Z,18464
2018-06-29T10:13:33.099Z,27712
2018-06-29T10:14:41.179Z,20640
2018-06-29T10:15:49.252Z,22208
2018-06-29T10:16:57.297Z,28064
2018-06-29T10:18:05.397Z,24416
2018-06-29T10:19:13.481Z,18816
2018-06-29T10:20:21.555Z,20000
2018-06-29T10:21:29.631Z,21024
2018-06-29T10:22:37.670Z,22368
2018-06-29T10:23:45.765Z,24896
2018-06-29T10:24:53.844Z,30880
2018-06-29T10:26:01.911Z,23328
2018-06-29T10:27:09.997Z,22112
2018-06-29T10:28:18.052Z,28000
2018-06-29T10:29:26.136Z,20384
2018-06-29T10:30:34.208Z,18208
2018-06-29T10:31:42.276Z,25408
2018-06-29T10:32:50.354Z,33888
2018-06-29T10:33:58.434Z,29312
2018-06-29T10:35:06.497Z,28864
2018-06-29T10:36:14.581Z,28800
2018-06-29T10:37:22.642Z,30112
2018-06-29T10:38:30.711Z,25088
2018-06-29T10:39:38.813Z,22016
2018-06-29T10:40:46.870Z,20992
2018-06-29T10:41:54.961Z,19904
2018-06-29T10:43:03.025Z,26304
2018-06-29T10:44:11.115Z,28704
2018-06-29T10:45:19.180Z,22240
2018-06-29T10:46:27.226Z,23424
2018-06-29T10:47:35.321Z,24928
2018-06-29T10:48:43.407Z,24320
2018-06-29T10:49:51.476Z,18272
2018-06-29T10:50:59.540Z,24064
2018-06-29T10:52:07.601Z,22080
2018-06-29T10:53:15.699Z,24224
2018-06-29T10:54:23.776Z,22464
2018-06-29T10:55:31.840Z,25568
2018-06-29T10:56:39.903Z,21792
2018-06-29T10:57:48.004Z,28256
2018-06-29T10:58:56.073Z,18528
2018-06-29T11:00:04.143Z,24896
2018-06-29T11:01:12.215Z,21568
2018-06-29T11:02:20.279Z,21088
2018-06-29T11:03:28.366Z,20064
2018-06-29T11:04:36.436Z,21664
2018-06-29T11:05:44.518Z,23392
2018-06-29T11:06:52.580Z,17600
2018-06-29T11:08:00.662Z,16560
2018-06-29T11:09:08.726Z,15976
2018-06-29T11:10:16.792Z,24928
2018-06-29T11:11:24.876Z,25024
2018-06-29T11:12:32.946Z,26528
2018-06-29T11:13:41.014Z,21664
2018-06-29T11:14:49.103Z,18432
2018-06-29T11:15:57.138Z,21184
2018-06-29T11:17:05.239Z,22496
2018-06-29T11:18:13.327Z,18848
2018-06-29T11:19:21.391Z,19392
2018-06-29T11:20:29.482Z,21152
2018-06-29T11:21:37.520Z,21056
2018-06-29T11:22:45.631Z,15700
2018-06-29T11:23:53.693Z,16568
2018-06-29T11:25:01.773Z,15916
2018-06-29T11:26:09.834Z,14220
2018-06-29T11:27:17.904Z,13872
2018-06-29T11:28:25.986Z,14268
2018-06-29T11:29:34.049Z,15404
2018-06-29T11:30:42.141Z,13764
2018-06-29T11:31:50.225Z,11584
2018-06-29T11:32:58.275Z,12944
2018-06-29T11:34:06.342Z,16300
2018-06-29T11:35:14.424Z,15080
2018-06-29T11:36:22.513Z,18144
2018-06-29T11:37:30.573Z,18400
2018-06-29T11:38:38.651Z,19136
2018-06-29T11:39:46.713Z,18176
2018-06-29T11:40:54.786Z,12896
2018-06-29T11:42:02.873Z,17376
2018-06-29T11:43:10.954Z,20384
2018-06-29T11:44:19.177Z,20320
2018-06-29T11:45:27.066Z,15588
2018-06-29T11:46:35.172Z,14320
2018-06-29T11:47:43.246Z,15480
2018-06-29T11:48:51.333Z,16032
2018-06-29T11:49:59.398Z,15332
2018-06-29T11:51:07.441Z,16096
2018-06-29T11:52:15.553Z,14252
2018-06-29T11:53:23.609Z,11148
2018-06-29T11:54:31.698Z,12916
2018-06-29T11:55:39.768Z,9432
2018-06-29T11:56:47.837Z,8232
2018-06-29T11:57:55.910Z,8320
2018-06-29T11:59:03.977Z,8480
2018-06-29T12:00:12.052Z,7876
2018-06-29T12:01:20.144Z,8700
2018-06-29T12:02:28.210Z,12040
2018-06-29T12:03:36.272Z,19040
2018-06-29T12:04:44.365Z,16356
2018-06-29T12:05:52.432Z,10812
2018-06-29T12:07:00.504Z,12216
2018-06-29T12:08:08.607Z,9964
2018-06-29T12:09:16.632Z,9176
2018-06-29T12:10:24.714Z,9560
2018-06-29T12:11:32.787Z,12276
2018-06-29T12:12:40.913Z,14868
2018-06-29T12:13:48.948Z,14340
2018-06-29T12:14:56.993Z,13264
2018-06-29T12:16:05.088Z,14848
2018-06-29T12:17:13.163Z,14916
2018-06-29T12:18:21.230Z,17952
2018-06-29T12:19:29.302Z,17184
2018-06-29T12:20:37.351Z,18816
2018-06-29T12:21:45.450Z,20640
2018-06-29T12:22:53.519Z,15788
2018-06-29T12:24:01.604Z,15144
2018-06-29T12:25:09.659Z,14716
2018-06-29T12:26:17.717Z,15080
2018-06-29T12:27:25.800Z,16844
2018-06-29T12:28:33.889Z,15520
2018-06-29T12:29:41.966Z,13792
2018-06-29T12:30:50.031Z,10828
2018-06-29T12:31:58.106Z,12576
2018-06-29T12:33:06.228Z,9996
2018-06-29T12:34:14.267Z,11956
2018-06-29T12:35:22.326Z,8460
2018-06-29T12:36:30.401Z,8676
2018-06-29T12:37:38.474Z,8104
2018-06-29T12:38:46.552Z,8004
2018-06-29T12:39:54.632Z,8024
2018-06-29T12:41:02.692Z,8132
2018-06-29T12:42:10.774Z,8040
2018-06-29T12:43:18.846Z,7896
2018-06-29T12:44:26.901Z,7424
2018-06-29T12:45:34.992Z,7612
2018-06-29T12:46:43.063Z,8576
2018-06-29T12:47:51.391Z,8940
2018-06-29T12:48:59.212Z,7924
2018-06-29T12:50:07.259Z,8088
2018-06-29T12:51:15.354Z,7884
2018-06-29T12:52:23.424Z,8592
2018-06-29T12:53:31.503Z,10656
2018-06-29T12:54:39.570Z,12560
2018-06-29T12:55:47.626Z,10044
2018-06-29T12:56:55.716Z,7244
2018-06-29T12:58:03.980Z,7108
2018-06-29T12:59:11.865Z,7584
2018-06-29T13:00:19.939Z,7476
2018-06-29T13:01:28.024Z,7500
2018-06-29T13:02:36.073Z,8000
2018-06-29T13:03:44.155Z,8632
2018-06-29T13:04:52.301Z,7816
2018-06-29T13:06:00.300Z,6708
2018-06-29T13:07:08.370Z,7000
2018-06-29T13:08:16.438Z,8688
2018-06-29T13:09:24.513Z,10100
2018-06-29T13:10:32.593Z,9864
2018-06-29T13:11:40.661Z,6672
2018-06-29T13:12:48.743Z,7296
2018-06-29T13:13:56.799Z,7756
2018-06-29T13:15:04.894Z,7844
2018-06-29T13:16:12.959Z,7196
2018-06-29T13:17:21.034Z,7220
2018-06-29T13:18:29.117Z,7328
2018-06-29T13:19:37.143Z,7696
2018-06-29T13:20:45.254Z,8420
2018-06-29T13:21:53.338Z,9124
2018-06-29T13:23:01.387Z,10804
2018-06-29T13:24:09.467Z,11356
2018-06-29T13:25:17.580Z,8496
2018-06-29T13:26:25.618Z,11720
2018-06-29T13:27:33.693Z,10212
2018-06-29T13:28:41.763Z,9612
2018-06-29T13:29:49.824Z,11296
2018-06-29T13:30:57.918Z,14724
2018-06-29T13:32:05.987Z,13676
2018-06-29T13:33:14.061Z,12836
2018-06-29T13:34:22.128Z,15168
2018-06-29T13:35:30.191Z,14648
2018-06-29T13:36:38.269Z,14232
2018-06-29T13:37:46.339Z,12400
2018-06-29T13:38:54.411Z,12748
2018-06-29T13:40:02.477Z,14496
2018-06-29T13:41:10.561Z,12596
2018-06-29T13:42:18.630Z,9748
2018-06-29T13:43:26.728Z,9476
2018-06-29T13:44:34.790Z,12656
2018-06-29T13:45:42.855Z,13180
2018-06-29T13:46:50.932Z,11648
2018-06-29T13:47:59.001Z,9480
2018-06-29T13:49:07.057Z,8120
2018-06-29T13:50:15.156Z,8752
2018-06-29T13:51:23.217Z,9796
2018-06-29T13:52:31.296Z,9620
2018-06-29T13:53:39.383Z,8124
2018-06-29T13:54:47.475Z,7864
2018-06-29T13:55:55.525Z,8608
2018-06-29T13:57:03.595Z,8344
2018-06-29T13:58:11.667Z,8108
2018-06-29T13:59:19.741Z,7056
2018-06-29T14:00:27.810Z,7688
2018-06-29T14:01:35.885Z,8368
2018-06-29T14:02:43.960Z,7584
2018-06-29T14:03:52.022Z,9536
2018-06-29T14:05:00.106Z,11724
2018-06-29T14:06:08.189Z,9672
2018-06-29T14:07:16.239Z,9928
2018-06-29T14:08:24.312Z,11376
2018-06-29T14:09:32.414Z,12356
2018-06-29T14:10:40.506Z,13004
2018-06-29T14:11:48.539Z,11852
2018-06-29T14:12:56.617Z,9096
2018-06-29T14:14:04.691Z,6796
2018-06-29T14:15:12.765Z,7396
2018-06-29T14:16:20.841Z,7576
2018-06-29T14:17:28.904Z,7968
2018-06-29T14:18:36.956Z,7828
2018-06-29T14:19:45.049Z,6056
2018-06-29T14:20:53.120Z,6292
2018-06-29T14:22:01.198Z,6316
2018-06-29T14:23:09.275Z,5928
2018-06-29T14:24:17.317Z,5388
2018-06-29T14:25:25.410Z,5312
2018-06-29T14:26:33.494Z,5324
2018-06-29T14:27:41.571Z,5292
2018-06-29T14:28:49.644Z,5628
2018-06-29T14:29:57.689Z,5540
2018-06-29T14:31:05.767Z,5104
2018-06-29T14:32:13.846Z,5132
2018-06-29T14:33:21.929Z,5100
2018-06-29T14:34:29.997Z,5040
2018-06-29T14:35:38.074Z,5100
2018-06-29T14:36:46.133Z,5112
2018-06-29T14:37:54.209Z,4856
2018-06-29T14:39:02.295Z,4896
2018-06-29T14:40:10.354Z,4912
2018-06-29T14:41:18.431Z,5100
2018-06-29T14:42:26.513Z,4828
2018-06-29T14:43:34.588Z,4668
2018-06-29T14:44:42.650Z,4664
2018-06-29T14:45:50.713Z,4656
2018-06-29T14:46:58.787Z,4668
2018-06-29T14:48:06.851Z,4652
2018-06-29T14:49:14.937Z,4608
2018-06-29T14:50:22.995Z,4620
2018-06-29T14:51:31.089Z,4752
2018-06-29T14:52:39.157Z,4916
2018-06-29T14:53:47.209Z,5144
2018-06-29T14:54:55.293Z,5336
2018-06-29T14:56:03.375Z,5708
2018-06-29T14:57:11.448Z,6516
2018-06-29T14:58:19.508Z,6120
2018-06-29T14:59:27.567Z,6856
2018-06-29T15:00:35.661Z,8768
2018-06-29T15:01:43.736Z,7584
2018-06-29T15:02:51.865Z,6304
2018-06-29T15:03:59.874Z,5496
2018-06-29T15:05:07.960Z,5448
2018-06-29T15:06:16.001Z,6200
2018-06-29T15:07:24.097Z,10020
2018-06-29T15:08:32.164Z,10132
2018-06-29T15:09:40.233Z,8444
2018-06-29T15:10:48.289Z,7860
2018-06-29T15:11:56.397Z,6624
2018-06-29T15:13:04.451Z,7932
2018-06-29T15:14:12.573Z,6676
2018-06-29T15:15:20.600Z,6204
2018-06-29T15:16:28.665Z,7036